Time;durP1;ratioP1;P1;durP2;ratioP2;P2;SDS_P1;SDS_P2;PMS_P1;PMS_P2;Temp;Humidity;BMP_temperature;BMP_pressure;BME280_temperature;BME280_humidity;BME280_pressure;Samples;Min_cycle;Max_cycle;Signal;HPM_P1;HPM_P2
2023/06/04 00:00:43;;;;;;;4.93;1.40;;;;;;;14.43;100.00;102181.34;5071193;28;20135;-47
2023/06/04 00:03:08;;;;;;;2.97;1.23;;;;;;;14.41;100.00;102175.25;5069253;28;20021;-51
2023/06/04 00:05:33;;;;;;;4.05;1.70;;;;;;;14.34;100.00;102172.41;5070561;28;20058;-50
2023/06/04 00:07:59;;;;;;;6.25;1.58;;;;;;;14.34;100.00;102182.38;5075036;28;20034;-49
2023/06/04 00:10:24;;;;;;;1.58;1.10;;;;;;;14.35;100.00;102186.78;5089468;28;20107;-50
2023/06/04 00:12:50;;;;;;;2.13;1.15;;;;;;;14.29;100.00;102185.59;5088810;28;20020;-50
2023/06/04 00:15:16;;;;;;;3.60;1.48;;;;;;;14.26;100.00;102180.53;5070206;28;20380;-51
2023/06/04 00:17:42;;;;;;;6.18;1.58;;;;;;;14.21;100.00;102178.34;5073956;28;20099;-49
2023/06/04 00:20:08;;;;;;;3.33;1.48;;;;;;;14.16;100.00;102182.59;5090511;28;20131;-50
2023/06/04 00:22:33;;;;;;;5.25;1.55;;;;;;;14.12;100.00;102176.69;5089969;28;20044;-50
2023/06/04 00:24:58;;;;;;;4.00;1.45;;;;;;;14.11;100.00;102183.09;5090411;28;20044;-48
2023/06/04 00:27:24;;;;;;;5.07;1.58;;;;;;;14.13;100.00;102186.50;5089221;28;20056;-51
2023/06/04 00:29:49;;;;;;;4.22;1.30;;;;;;;14.11;100.00;102176.84;5080395;28;20112;-49
2023/06/04 00:32:14;;;;;;;3.25;1.35;;;;;;;14.10;100.00;102176.00;5089122;28;20070;-50
2023/06/04 00:34:40;;;;;;;3.42;1.42;;;;;;;14.06;100.00;102177.41;5094131;28;20497;-50
2023/06/04 00:37:06;;;;;;;1.10;1.00;;;;;;;14.06;100.00;102177.41;5093809;28;20583;-49
2023/06/04 00:39:32;;;;;;;2.67;1.40;;;;;;;14.03;100.00;102180.41;5071869;28;20041;-50
2023/06/04 00:41:57;;;;;;;5.68;1.42;;;;;;;14.00;100.00;102184.31;5084611;28;20092;-47
2023/06/04 00:44:24;;;;;;;2.17;1.40;;;;;;;14.00;100.00;102176.19;5093863;28;20028;-48
2023/06/04 00:46:50;;;;;;;3.10;1.30;;;;;;;13.99;100.00;102184.50;5088445;28;20025;-48
2023/06/04 00:49:15;;;;;;;2.80;1.20;;;;;;;13.96;100.00;102190.25;5077740;28;20039;-50
2023/06/04 00:51:41;;;;;;;2.03;1.30;;;;;;;14.00;100.00;102186.19;5093837;28;20020;-51
2023/06/04 00:54:08;;;;;;;4.60;1.40;;;;;;;13.95;100.00;102181.28;5093562;28;20031;-52
2023/06/04 00:56:38;;;;;;;4.93;1.50;;;;;;;13.95;100.00;102185.84;5091324;28;20482;-49
2023/06/04 00:59:05;;;;;;;2.33;1.38;;;;;;;13.93;100.00;102179.75;5086934;28;20127;-49
2023/06/04 01:01:37;;;;;;;2.65;1.35;;;;;;;13.92;100.00;102175.38;5092210;28;20024;-52
2023/06/04 01:04:04;;;;;;;2.95;1.17;;;;;;;13.86;100.00;102190.44;5093812;28;20062;-52
2023/06/04 01:06:37;;;;;;;1.48;1.38;;;;;;;13.82;100.00;102184.53;5093372;28;20040;-51
2023/06/04 01:09:04;;;;;;;2.83;1.25;;;;;;;13.76;100.00;102187.06;5080915;28;20153;-51
2023/06/04 01:11:34;;;;;;;2.00;1.40;;;;;;;13.80;100.00;102185.72;5071664;28;20041;-52
2023/06/04 01:13:59;;;;;;;2.72;1.33;;;;;;;13.75;100.00;102186.22;5073219;28;20035;-52
2023/06/04 01:16:28;;;;;;;5.95;1.25;;;;;;;13.75;100.00;102185.38;5073152;28;20024;-50
2023/06/04 01:18:58;;;;;;;2.45;1.23;;;;;;;13.74;100.00;102183.66;5073974;28;20282;-50
2023/06/04 01:21:26;;;;;;;5.80;1.40;;;;;;;13.71;100.00;102187.56;5070671;28;20024;-51
2023/06/04 01:23:58;;;;;;;1.83;1.30;;;;;;;13.72;100.00;102193.84;5074522;28;20046;-51
2023/06/04 01:26:25;;;;;;;2.70;1.30;;;;;;;13.71;100.00;102192.97;5071282;28;20069;-49
2023/06/04 01:28:51;;;;;;;3.40;1.35;;;;;;;13.63;100.00;102190.28;5075447;28;20074;-48
2023/06/04 01:31:16;;;;;;;1.95;1.40;;;;;;;13.64;100.00;102191.13;5070700;28;20025;-52
2023/06/04 01:33:42;;;;;;;4.03;1.30;;;;;;;13.62;100.00;102188.59;5072552;28;20042;-48
2023/06/04 01:36:10;;;;;;;4.03;1.40;;;;;;;13.62;100.00;102199.41;5079771;28;20028;-49
2023/06/04 01:38:35;;;;;;;;;;;;;;;13.60;100.00;102198.72;5086295;28;20043;-50
2023/06/04 01:41:01;;;;;;;2.08;1.20;;;;;;;13.57;100.00;102190.97;5092787;28;19908;-49
2023/06/04 01:43:28;;;;;;;1.92;1.25;;;;;;;13.53;100.00;102181.47;5084858;28;20408;-52
2023/06/04 01:45:54;;;;;;;3.87;1.33;;;;;;;13.52;100.00;102190.63;5091313;28;20021;-53
2023/06/04 01:48:19;;;;;;;2.92;1.30;;;;;;;13.50;100.00;102181.81;5083709;28;20033;-50
2023/06/04 01:50:45;;;;;;;2.55;1.30;;;;;;;13.51;100.00;102178.13;5080872;28;20031;-49
2023/06/04 01:53:10;;;;;;;2.78;1.00;;;;;;;13.46;100.00;102173.22;5082380;28;20452;-52
2023/06/04 01:55:37;;;;;;;2.67;1.10;;;;;;;13.46;100.00;102177.78;5070745;28;20025;-49
2023/06/04 01:58:02;;;;;;;4.63;1.33;;;;;;;13.45;100.00;102171.50;5060072;28;20040;-48
2023/06/04 02:00:29;;;;;;;4.32;1.17;;;;;;;13.46;100.00;102173.22;5074795;28;20487;-51
2023/06/04 02:02:55;;;;;;;2.55;1.30;;;;;;;13.43;100.00;102178.97;5077056;28;20028;-51
2023/06/04 02:05:21;;;;;;;2.60;1.17;;;;;;;13.37;100.00;102177.75;5071176;28;20032;-51
2023/06/04 02:07:47;;;;;;;9.75;1.50;;;;;;;13.36;100.00;102181.47;5075859;28;20023;-49
2023/06/04 02:10:15;;;;;;;4.50;1.23;;;;;;;13.36;100.00;102181.47;5089178;28;20581;-48
2023/06/04 02:12:52;;;;;;;2.05;1.25;;;;;;;13.30;100.00;102179.44;5069069;28;20067;-49
2023/06/04 02:15:17;;;;;;;3.00;1.25;;;;;;;13.31;100.00;102175.72;5071907;28;20475;-48
2023/06/04 02:17:45;;;;;;;2.60;1.20;;;;;;;13.29;100.00;102168.78;5081619;28;20039;-49
2023/06/04 02:20:11;;;;;;;1.85;1.23;;;;;;;13.22;100.00;102181.25;5071959;28;20482;-49
2023/06/04 02:22:36;;;;;;;2.17;1.20;;;;;;;13.23;100.00;102172.97;5072474;28;20027;-49
2023/06/04 02:25:01;;;;;;;3.47;1.30;;;;;;;13.23;100.00;102178.38;5087023;28;20069;-50
2023/06/04 02:27:27;;;;;;;4.47;0.90;;;;;;;13.20;100.00;102173.31;5089097;28;20040;-51
2023/06/04 02:29:53;;;;;;;2.58;0.98;;;;;;;13.20;100.00;102177.88;5082919;28;20050;-48
2023/06/04 02:32:18;;;;;;;3.28;1.30;;;;;;;13.22;100.00;102182.13;5090631;28;20144;-49
2023/06/04 02:34:44;;;;;;;1.48;0.90;;;;;;;13.19;100.00;102185.13;5080901;28;20032;-48
2023/06/04 02:37:09;;;;;;;1.27;1.17;;;;;;;13.20;100.00;102181.44;5070230;28;20090;-51
2023/06/04 02:39:35;;;;;;;1.05;0.80;;;;;;;13.21;100.00;102182.25;5081793;28;20075;-47
2023/06/04 02:42:00;;;;;;;3.20;1.05;;;;;;;13.19;100.00;102179.72;5070365;28;20020;-49
2023/06/04 02:44:26;;;;;;;3.05;1.20;;;;;;;13.20;100.00;102191.41;5070789;28;20028;-51
2023/06/04 02:46:51;;;;;;;3.20;1.00;;;;;;;13.13;100.00;102178.53;5069620;28;20043;-49
2023/06/04 02:49:16;;;;;;;2.20;0.90;;;;;;;13.17;100.00;102179.06;5080514;28;20039;-50
2023/06/04 02:51:42;;;;;;;1.90;1.02;;;;;;;13.16;100.00;102183.63;5090191;28;20394;-49
2023/06/04 02:54:08;;;;;;;3.47;1.00;;;;;;;13.10;100.00;102189.69;5090115;28;20020;-49
2023/06/04 02:56:35;;;;;;;2.65;0.98;;;;;;;13.05;100.00;102183.09;5090502;28;20474;-50
2023/06/04 02:59:01;;;;;;;5.77;1.23;;;;;;;13.04;100.00;102184.94;5085345;28;20101;-49
2023/06/04 03:01:26;;;;;;;1.70;0.88;;;;;;;13.06;100.00;102192.88;5069572;28;20048;-48
2023/06/04 03:03:53;;;;;;;3.25;1.00;;;;;;;13.04;100.00;102178.69;5069529;28;20027;-50
2023/06/04 03:06:22;;;;;;;2.53;1.10;;;;;;;13.04;100.00;102176.00;5070592;28;20095;-49
2023/06/04 03:08:49;;;;;;;2.90;0.93;;;;;;;12.99;100.00;102173.78;5076191;28;20450;-48
2023/06/04 03:11:15;;;;;;;2.90;1.00;;;;;;;13.00;100.00;102180.88;5090585;28;20111;-50
2023/06/04 03:13:41;;;;;;;2.45;0.82;;;;;;;12.95;100.00;102175.97;5089532;28;20225;-49
2023/06/04 03:16:09;;;;;;;1.67;0.90;;;;;;;12.92;100.00;102180.84;5074226;28;20111;-48
2023/06/04 03:18:39;;;;;;;1.02;0.93;;;;;;;12.91;100.00;102185.41;5073003;28;20039;-49
2023/06/04 03:21:05;;;;;;;3.17;1.10;;;;;;;12.86;100.00;102176.13;5067791;28;20169;-51
2023/06/04 03:23:31;;;;;;;2.95;1.10;;;;;;;12.87;100.00;102178.63;5070255;28;20119;-48
2023/06/04 03:25:56;;;;;;;1.70;0.88;;;;;;;12.87;100.00;102173.22;5081541;28;20060;-51
2023/06/04 03:28:21;;;;;;;1.52;0.90;;;;;;;12.89;100.00;102179.31;5073087;28;20455;-48
2023/06/04 03:30:47;;;;;;;3.17;1.10;;;;;;;12.88;100.00;102185.75;5069274;28;20544;-50
2023/06/04 03:33:12;;;;;;;3.20;1.00;;;;;;;12.83;100.00;102177.28;5069782;28;20036;-48
2023/06/04 03:35:40;;;;;;;1.15;0.82;;;;;;;12.77;100.00;102175.25;5070972;28;20078;-51
2023/06/04 03:38:05;;;;;;;4.25;0.95;;;;;;;12.80;100.00;102177.63;5069380;28;20046;-50
2023/06/04 03:40:30;;;;;;;3.22;1.00;;;;;;;12.79;100.00;102180.47;5089012;28;20525;-53
2023/06/04 03:42:56;;;;;;;5.45;1.10;;;;;;;12.79;100.00;102178.59;5090684;28;20117;-49
2023/06/04 03:45:21;;;;;;;3.80;1.20;;;;;;;12.79;100.00;102181.31;5090535;28;20028;-49
2023/06/04 03:47:46;;;;;;;1.45;0.80;;;;;;;12.78;100.00;102182.34;5089073;28;20062;-48
2023/06/04 03:50:12;;;;;;;3.88;1.05;;;;;;;12.79;100.00;102180.47;5070296;28;20040;-49
2023/06/04 03:52:37;;;;;;;2.58;1.13;;;;;;;12.79;100.00;102185.88;5070242;28;20037;-49
2023/06/04 03:55:03;;;;;;;2.60;1.10;;;;;;;12.80;100.00;102183.03;5070890;28;20381;-49
2023/06/04 03:57:28;;;;;;;2.47;1.10;;;;;;;12.82;100.00;102191.81;5068932;28;20094;-48
2023/06/04 03:59:54;;;;;;;0.98;0.80;;;;;;;12.80;100.00;102182.19;5079233;28;20473;-50
2023/06/04 04:02:19;;;;;;;1.75;1.08;;;;;;;12.79;100.00;102181.31;5090376;28;20028;-49
2023/06/04 04:04:44;;;;;;;5.05;0.77;;;;;;;12.85;100.00;102182.50;5072889;28;20099;-50
2023/06/04 04:07:10;;;;;;;1.48;1.00;;;;;;;12.78;100.00;102190.44;5075683;28;20032;-49
2023/06/04 04:09:36;;;;;;;5.07;0.98;;;;;;;12.84;100.00;102186.22;5081188;28;20098;-49
2023/06/04 04:12:02;;;;;;;3.53;1.38;;;;;;;12.86;100.00;102186.91;5092464;28;20020;-50
2023/06/04 04:14:27;;;;;;;3.25;1.00;;;;;;;12.92;100.00;102195.19;5092552;28;20110;-49
2023/06/04 04:16:53;;;;;;;1.50;1.02;;;;;;;12.92;100.00;102186.25;5092736;28;20107;-51
2023/06/04 04:19:18;;;;;;;0.95;0.70;;;;;;;12.94;100.00;102190.47;5093472;28;20067;-48
2023/06/04 04:21:43;;;;;;;2.05;0.88;;;;;;;12.96;100.00;102191.16;5091361;28;20493;-53
2023/06/04 04:24:09;;;;;;;2.42;0.80;;;;;;;13.04;100.00;102184.09;5081297;28;20032;-47
2023/06/04 04:26:34;;;;;;;1.52;0.93;;;;;;;13.07;100.00;102189.19;5077503;28;20055;-48
2023/06/04 04:29:00;;;;;;;2.28;1.00;;;;;;;13.11;100.00;102183.28;5075543;28;20097;-51
2023/06/04 04:31:26;;;;;;;1.33;0.93;;;;;;;13.15;100.00;102186.47;5069828;28;20550;-51
2023/06/04 04:33:52;;;;;;;7.28;1.80;;;;;;;13.17;100.00;102187.16;5070983;28;20020;-50
2023/06/04 04:36:18;;;;;;;2.63;1.10;;;;;;;13.19;100.00;102182.41;5082796;28;20028;-51
2023/06/04 04:38:44;;;;;;;2.50;1.27;;;;;;;13.19;100.00;102182.41;5091810;28;20070;-48
2023/06/04 04:41:11;;;;;;;1.33;1.00;;;;;;;13.23;100.00;102182.94;5086565;28;20103;-49
2023/06/04 04:43:40;;;;;;;2.83;1.38;;;;;;;13.29;100.00;102191.25;5081972;28;20063;-48
2023/06/04 04:46:06;;;;;;;4.55;1.10;;;;;;;13.33;100.00;102176.41;5084032;28;20077;-48
2023/06/04 04:48:32;;;;;;;1.77;1.10;;;;;;;13.41;100.00;102182.84;5088906;28;20051;-51
2023/06/04 04:50:57;;;;;;;6.10;1.20;;;;;;;13.39;100.00;102174.88;5077001;28;20489;-51
2023/06/04 04:53:23;;;;;;;4.32;1.42;;;;;;;13.45;100.00;102176.06;5059789;28;20063;-52
2023/06/04 04:55:48;;;;;;;5.20;1.20;;;;;;;13.52;100.00;102177.94;5055653;28;20024;-47
2023/06/04 04:58:14;;;;;;;1.95;0.95;;;;;;;13.57;100.00;102169.31;5079835;28;20474;-51
2023/06/04 05:00:40;;;;;;;2.30;1.20;;;;;;;13.66;100.00;102170.16;5075755;28;20047;-50
2023/06/04 05:03:05;;;;;;;2.97;1.35;;;;;;;13.66;100.00;102179.09;5080054;28;20032;-48
2023/06/04 05:05:32;;;;;;;2.90;1.17;;;;;;;13.71;100.00;102179.44;5090502;28;20028;-51
2023/06/04 05:07:57;;;;;;;3.03;1.23;;;;;;;13.72;100.00;102186.56;5089424;28;20020;-53
2023/06/04 05:10:22;;;;;;;3.28;1.83;;;;;;;13.76;100.00;102187.91;5090241;28;20570;-52
2023/06/04 05:12:56;;;;;;;3.08;1.30;;;;;;;13.86;100.00;102187.72;5089742;28;20044;-50
2023/06/04 05:15:22;;;;;;;2.30;1.30;;;;;;;13.95;100.00;102188.56;5076672;28;20522;-50
2023/06/04 05:17:48;;;;;;;4.05;1.55;;;;;;;14.03;100.00;102186.72;5077531;28;20032;-47
2023/06/04 05:20:14;;;;;;;3.13;1.40;;;;;;;14.09;100.00;102185.16;5078296;28;20036;-49
2023/06/04 05:22:40;;;;;;;4.22;1.40;;;;;;;14.21;100.00;102194.59;5073572;28;20044;-49
2023/06/04 05:25:06;;;;;;;3.33;1.33;;;;;;;14.30;100.00;102191.88;5085197;28;20020;-51
2023/06/04 05:27:32;;;;;;;2.47;1.20;;;;;;;14.39;100.00;102190.84;5083666;28;20048;-49
2023/06/04 05:30:03;;;;;;;2.25;1.20;;;;;;;14.48;100.00;102196.06;5078583;28;20066;-51
2023/06/04 05:32:28;;;;;;;3.38;1.40;;;;;;;14.58;100.00;102201.28;5077430;28;20090;-50
2023/06/04 05:34:58;;;;;;;3.15;1.40;;;;;;;14.62;100.00;102194.50;5069980;28;20698;-52
2023/06/04 05:37:23;;;;;;;3.63;1.45;;;;;;;14.68;100.00;102206.50;5074194;28;20062;-52
2023/06/04 05:39:50;;;;;;;3.22;1.40;;;;;;;14.69;100.00;102203.63;5088004;28;20424;-50
2023/06/04 05:42:15;;;;;;;3.63;1.42;;;;;;;14.74;100.00;102204.97;5089979;28;20012;-51
2023/06/04 05:44:41;;;;;;;4.65;1.65;;;;;;;14.82;100.00;102197.63;5086203;28;20379;-49
2023/06/04 05:47:06;;;;;;;2.53;1.30;;;;;;;14.94;100.00;102195.38;5089426;28;20032;-48
2023/06/04 05:49:34;;;;;;;4.30;1.90;;;;;;;15.00;100.00;102204.66;5085481;28;20051;-50
2023/06/04 05:51:59;;;;;;;4.15;1.55;;;;;;;15.09;100.00;102209.88;5069375;28;20028;-51
2023/06/04 05:54:24;;;;;;;2.22;1.40;;;;;;;15.17;100.00;102205.44;5070604;28;20394;-48
2023/06/04 05:56:50;;;;;;;5.53;1.52;;;;;;;15.17;100.00;102205.44;5070609;28;20391;-50
2023/06/04 05:59:15;;;;;;;3.72;1.60;;;;;;;15.15;100.00;102209.16;5055926;28;20846;-47
2023/06/04 06:01:40;;;;;;;6.03;1.40;;;;;;;15.15;100.00;102209.16;5066849;28;20032;-52
2023/06/04 06:04:06;;;;;;;5.30;1.20;;;;;;;15.28;100.00;102207.72;5082480;28;20106;-49
2023/06/04 06:06:31;;;;;;;2.80;1.50;;;;;;;15.37;100.00;102201.19;5081374;28;20031;-50
2023/06/04 06:08:57;;;;;;;3.20;1.27;;;;;;;15.46;100.00;102202.00;5079616;28;20027;-50
2023/06/04 06:11:23;;;;;;;4.55;1.70;;;;;;;15.57;100.00;102212.44;5078859;28;20511;-51
2023/06/04 06:13:48;;;;;;;4.72;1.42;;;;;;;15.67;100.00;102210.31;5083067;28;20573;-50
2023/06/04 06:16:14;;;;;;;5.30;1.88;;;;;;;15.79;100.00;102208.03;5083269;28;20501;-50
2023/06/04 06:18:39;;;;;;;11.45;1.90;;;;;;;15.97;100.00;102216.69;5082269;28;20532;-52
2023/06/04 06:21:05;;;;;;;4.80;1.50;;;;;;;16.24;99.39;102211.66;5064530;28;20060;-51
2023/06/04 06:23:31;;;;;;;5.65;1.80;;;;;;;16.68;97.84;102216.25;5082757;28;20034;-50
2023/06/04 06:25:56;;;;;;;8.13;1.60;;;;;;;16.92;94.33;102219.72;5081651;28;20036;-50
2023/06/04 06:28:22;;;;;;;3.50;1.80;;;;;;;17.22;94.72;102217.78;5080487;28;20059;-50
2023/06/04 06:30:47;;;;;;;5.28;1.30;;;;;;;17.47;92.65;102221.81;5080516;28;20164;-54
2023/06/04 06:33:13;;;;;;;2.33;1.40;;;;;;;17.52;92.12;102223.97;5084372;28;20485;-53
2023/06/04 06:35:38;;;;;;;5.28;1.55;;;;;;;17.70;92.17;102227.06;5084890;28;20490;-50
2023/06/04 06:38:04;;;;;;;4.95;1.60;;;;;;;17.67;88.45;102216.56;5082963;28;20557;-52
2023/06/04 06:40:30;;;;;;;5.30;1.92;;;;;;;17.62;88.48;102224.47;5084747;28;20024;-53
2023/06/04 06:42:56;;;;;;;2.20;1.38;;;;;;;17.48;89.52;102222.66;5085028;28;20039;-50
2023/06/04 06:45:21;;;;;;;4.32;1.15;;;;;;;17.41;89.75;102219.88;5081983;28;20028;-47
2023/06/04 06:47:46;;;;;;;6.78;1.35;;;;;;;17.45;90.02;102217.59;5082459;28;20036;-48
2023/06/04 06:50:12;;;;;;;2.92;1.40;;;;;;;17.54;90.70;102227.34;5080995;28;20401;-52
2023/06/04 06:52:38;;;;;;;4.88;1.60;;;;;;;17.76;89.27;102226.28;5078635;28;20032;-51
2023/06/04 06:55:04;;;;;;;4.13;1.55;;;;;;;18.12;88.68;102230.81;5074969;28;20473;-52
2023/06/04 06:57:29;;;;;;;1.83;1.30;;;;;;;18.62;85.13;102227.97;5081932;28;20056;-52
2023/06/04 06:59:55;;;;;;;4.32;1.27;;;;;;;19.15;80.95;102232.84;5080178;28;20028;-48
2023/06/04 07:02:20;;;;;;;3.03;1.02;;;;;;;19.88;79.05;102232.97;5083792;28;20448;-50
2023/06/04 07:04:46;;;;;;;3.63;1.10;;;;;;;20.97;74.08;102234.25;5082145;28;20538;-51
2023/06/04 07:07:11;;;;;;;3.53;1.25;;;;;;;21.67;67.13;102237.06;5083178;28;20427;-51
2023/06/04 07:09:36;;;;;;;3.03;1.00;;;;;;;22.54;65.18;102239.88;5084090;28;20024;-49
2023/06/04 07:12:02;;;;;;;4.80;1.05;;;;;;;23.30;61.21;102244.00;5084146;28;20042;-50
2023/06/04 07:14:27;;;;;;;2.00;1.20;;;;;;;23.60;59.25;102246.72;5084379;28;20062;-53
2023/06/04 07:16:52;;;;;;;2.05;1.13;;;;;;;24.02;54.53;102241.19;5082598;28;20115;-50
2023/06/04 07:19:18;;;;;;;3.17;1.23;;;;;;;24.18;52.47;102236.91;5083086;28;20040;-49
2023/06/04 07:21:43;;;;;;;3.85;1.20;;;;;;;24.31;52.08;102233.91;5082695;28;20016;-48
2023/06/04 07:24:08;;;;;;;3.55;1.35;;;;;;;24.23;51.49;102237.03;5081721;28;20089;-51
2023/06/04 07:26:34;;;;;;;4.03;1.45;;;;;;;24.23;51.43;102238.94;5065138;28;20070;-49
2023/06/04 07:29:01;;;;;;;2.90;1.30;;;;;;;24.45;51.48;102236.44;5084199;28;20347;-48
2023/06/04 07:31:26;;;;;;;3.03;1.17;;;;;;;24.85;50.56;102243.91;5081674;28;20028;-52
2023/06/04 07:33:51;;;;;;;3.28;1.52;;;;;;;25.01;49.42;102232.09;5084181;28;20039;-51
2023/06/04 07:36:17;;;;;;;2.28;1.33;;;;;;;25.50;46.77;102240.78;5065254;28;20036;-52
2023/06/04 07:38:42;;;;;;;2.42;1.27;;;;;;;25.30;45.48;102245.91;5083694;28;20028;-53
2023/06/04 07:41:08;;;;;;;7.97;1.15;;;;;;;25.23;45.65;102236.97;5083592;28;20032;-52
2023/06/04 07:43:37;;;;;;;4.70;1.20;;;;;;;25.49;45.27;102236.38;5080730;28;20493;-52
2023/06/04 07:46:03;;;;;;;3.28;1.10;;;;;;;25.16;44.35;102229.69;5082656;28;20024;-49
2023/06/04 07:48:31;;;;;;;2.28;1.30;;;;;;;24.95;46.27;102230.34;5083577;28;20036;-51
2023/06/04 07:50:59;;;;;;;2.28;1.20;;;;;;;25.28;45.25;102239.84;5084023;28;20031;-48
2023/06/04 07:53:25;;;;;;;3.42;0.93;;;;;;;25.26;44.87;102237.31;5083688;28;20039;-51
2023/06/04 07:55:51;;;;;;;6.95;1.38;;;;;;;25.39;45.57;102238.94;5084058;28;20040;-50
2023/06/04 07:58:16;;;;;;;1.92;0.90;;;;;;;25.54;43.32;102244.72;5081921;28;20056;-48
2023/06/04 08:00:41;;;;;;;2.47;1.10;;;;;;;25.48;43.32;102240.19;5081548;28;20032;-48
2023/06/04 08:03:07;;;;;;;4.63;1.33;;;;;;;25.79;43.42;102240.72;5083880;28;20442;-48
2023/06/04 08:05:33;;;;;;;5.35;1.10;;;;;;;26.01;43.22;102241.69;5083688;28;20218;-49
2023/06/04 08:07:59;;;;;;;3.75;1.52;;;;;;;25.87;43.20;102245.84;5081890;28;20032;-52
2023/06/04 08:10:24;;;;;;;2.83;1.02;;;;;;;25.78;41.87;102239.06;5082915;28;20043;-50
2023/06/04 08:12:49;;;;;;;1.98;1.02;;;;;;;25.43;42.51;102240.09;5065473;28;20039;-53
2023/06/04 08:15:15;;;;;;;3.58;1.23;;;;;;;25.62;43.00;102244.31;5083875;28;20063;-48
2023/06/04 08:17:41;;;;;;;4.65;1.17;;;;;;;26.20;41.44;102241.41;5083894;28;20505;-48
2023/06/04 08:20:06;;;;;;;3.03;1.00;;;;;;;25.91;39.89;102251.69;5084004;28;20030;-52
2023/06/04 08:22:32;;;;;;;2.17;1.00;;;;;;;25.92;41.95;102247.88;5084512;28;20489;-50
2023/06/04 08:24:57;;;;;;;1.67;0.82;;;;;;;25.98;40.21;102242.16;5082972;28;20508;-48
2023/06/04 08:27:23;;;;;;;3.22;1.10;;;;;;;25.97;39.06;102251.53;5082948;28;20063;-49
2023/06/04 08:29:48;;;;;;;6.78;1.40;;;;;;;26.12;38.99;102247.34;5081595;28;20039;-49
2023/06/04 08:32:14;;;;;;;3.50;1.23;;;;;;;26.31;39.26;102246.00;5079588;28;20033;-51
2023/06/04 08:34:39;;;;;;;5.05;1.30;;;;;;;26.43;38.39;102262.44;5083031;28;20036;-52
2023/06/04 08:37:05;;;;;;;1.95;0.98;;;;;;;26.24;39.21;102240.63;5083051;28;20505;-52
2023/06/04 08:39:31;;;;;;;1.48;0.80;;;;;;;25.87;39.64;102237.59;5081827;28;20062;-50
2023/06/04 08:42:01;;;;;;;5.90;1.63;;;;;;;25.29;40.27;102242.31;5083813;28;20028;-52
2023/06/04 08:44:27;;;;;;;3.85;1.13;;;;;;;25.33;40.33;102235.25;5079665;28;20060;-49
2023/06/04 08:46:53;;;;;;;3.85;1.35;;;;;;;25.08;41.33;102235.56;5083254;28;20062;-49
2023/06/04 08:49:20;;;;;;;3.47;1.13;;;;;;;25.53;42.32;102244.97;5047332;28;20032;-48
2023/06/04 08:51:47;;;;;;;5.45;1.40;;;;;;;25.67;41.80;102242.72;5082806;28;20138;-49
2023/06/04 08:54:12;;;;;;;4.22;1.40;;;;;;;26.18;41.98;102249.94;5065096;28;20473;-48
2023/06/04 08:56:37;;;;;;;2.15;1.30;;;;;;;26.75;41.13;102247.97;5086375;28;20047;-52
2023/06/04 08:59:05;;;;;;;3.00;1.20;;;;;;;26.71;39.79;102250.44;5086457;28;20906;-49
2023/06/04 09:01:32;;;;;;;2.15;1.10;;;;;;;26.73;39.66;102248.25;5085871;28;20051;-54
2023/06/04 09:03:59;;;;;;;3.83;1.00;;;;;;;25.76;39.93;102255.03;5067670;28;20040;-48
2023/06/04 09:06:25;;;;;;;;;;;;;;;26.16;39.48;102260.38;5084505;28;20024;-51
2023/06/04 09:08:51;;;;;;;3.37;1.30;;;;;;;26.05;40.02;102259.41;5078756;28;19947;-49
2023/06/04 09:11:17;;;;;;;4.50;1.38;;;;;;;25.99;40.64;102257.66;5077994;28;20098;-49
2023/06/04 09:13:45;;;;;;;2.72;1.08;;;;;;;26.00;41.86;102261.25;5065151;28;20041;-51
2023/06/04 09:16:11;;;;;;;;;;;;;;;25.83;41.25;102256.53;5065671;28;20493;-48
2023/06/04 09:18:36;;;;;;;5.13;1.77;;;;;;;25.87;42.23;102256.88;5079730;28;19912;-48
2023/06/04 09:21:07;;;;;;;2.45;1.30;;;;;;;26.21;42.13;102257.72;5081170;28;20085;-48
2023/06/04 09:23:51;;;;;;;2.75;1.20;;;;;;;26.57;42.75;102260.16;5075165;28;20040;-47
2023/06/04 09:26:16;;;;;;;4.18;1.33;;;;;;;27.08;41.54;102255.31;5079287;28;20059;-49
2023/06/04 09:28:43;;;;;;;7.53;1.85;;;;;;;27.33;41.17;102263.91;5082214;28;20485;-48
2023/06/04 09:31:21;;;;;;;7.88;1.30;;;;;;;27.84;39.75;102269.13;5078183;28;20064;-49
2023/06/04 09:33:49;;;;;;;4.93;1.35;;;;;;;27.91;39.46;102274.41;5072777;28;20024;-54
2023/06/04 09:36:15;;;;;;;3.90;1.20;;;;;;;27.91;37.61;102279.94;5072357;28;20016;-50
2023/06/04 09:38:41;;;;;;;2.13;0.98;;;;;;;27.42;39.18;102269.81;5088310;28;20051;-49
2023/06/04 09:41:13;;;;;;;4.30;1.30;;;;;;;27.06;39.00;102279.59;5089265;28;20036;-51
2023/06/04 09:43:40;;;;;;;3.78;1.38;;;;;;;26.66;39.65;102270.53;5084547;28;20119;-47
2023/06/04 09:46:13;;;;;;;3.23;1.33;;;;;;;26.33;40.12;102274.19;5086177;28;20224;-49
2023/06/04 09:48:40;;;;;;;2.17;1.10;;;;;;;26.45;40.93;102274.91;5091586;28;20039;-48
2023/06/04 09:51:10;;;;;;;3.35;1.38;;;;;;;26.77;40.58;102271.50;5087385;28;20060;-49
2023/06/04 09:53:36;;;;;;;9.15;2.30;;;;;;;26.68;38.40;102273.03;5074958;28;20021;-48
2023/06/04 09:56:06;;;;;;;6.50;1.27;;;;;;;26.28;39.44;102279.63;5089243;28;20031;-50
2023/06/04 09:58:32;;;;;;;3.00;1.60;;;;;;;26.40;40.83;102266.53;5092543;28;20130;-53
2023/06/04 10:00:59;;;;;;;5.80;1.83;;;;;;;27.05;38.80;102273.22;5093683;28;20133;-48
2023/06/04 10:03:27;;;;;;;4.18;1.52;;;;;;;26.89;39.15;102257.56;5093264;28;20032;-48
2023/06/04 10:05:54;;;;;;;2.97;1.23;;;;;;;26.73;38.30;102258.47;5092735;28;20070;-47
2023/06/04 10:08:21;;;;;;;5.77;1.40;;;;;;;27.00;38.97;102273.16;5091317;28;20024;-49
2023/06/04 10:10:48;;;;;;;2.47;1.25;;;;;;;27.31;37.14;102277.16;5092415;28;20027;-51
2023/06/04 10:13:17;;;;;;;3.15;1.27;;;;;;;27.02;37.37;102279.28;5089111;28;20032;-47
2023/06/04 10:15:43;;;;;;;5.20;1.35;;;;;;;26.76;38.08;102271.75;5074501;28;20032;-49
2023/06/04 10:18:10;;;;;;;3.03;1.13;;;;;;;26.71;37.89;102264.25;5092907;28;20138;-49
2023/06/04 10:20:36;;;;;;;2.47;1.48;;;;;;;26.97;37.98;102265.41;5091111;28;20024;-48
2023/06/04 10:23:04;;;;;;;7.20;1.70;;;;;;;27.09;37.96;102277.16;5092375;28;20340;-50
2023/06/04 10:25:30;;;;;;;6.03;1.85;;;;;;;26.90;37.35;102267.50;5092074;28;20764;-50
2023/06/04 10:27:56;;;;;;;3.63;1.23;;;;;;;27.11;37.72;102269.44;5091033;28;20038;-49
2023/06/04 10:30:21;;;;;;;2.90;1.40;;;;;;;27.40;37.30;102263.69;5089684;28;20528;-49
2023/06/04 10:32:46;;;;;;;5.82;1.30;;;;;;;27.56;36.54;102261.91;5080599;28;20467;-50
2023/06/04 10:35:12;;;;;;;4.78;1.50;;;;;;;27.77;37.28;102263.75;5079034;28;20075;-50
2023/06/04 10:37:37;;;;;;;3.58;1.27;;;;;;;28.19;35.22;102265.78;5076465;28;20059;-51
2023/06/04 10:40:05;;;;;;;2.70;1.50;;;;;;;28.25;35.03;102280.47;5071786;28;20429;-49
2023/06/04 10:42:38;;;;;;;5.65;1.77;;;;;;;28.35;35.05;102274.19;5092045;28;20027;-51
2023/06/04 10:45:04;;;;;;;3.33;1.40;;;;;;;28.40;34.15;102271.44;5091886;28;20051;-47
2023/06/04 10:47:30;;;;;;;2.13;1.20;;;;;;;28.05;34.15;102274.81;5090445;28;20425;-48
2023/06/04 10:50:15;;;;;;;3.35;1.25;;;;;;;28.12;34.24;102275.41;5073477;28;20051;-50
2023/06/04 10:52:54;;;;;;;1.85;1.20;;;;;;;28.52;34.73;102269.34;5087082;28;20397;-50
2023/06/04 10:55:19;;;;;;;5.25;1.48;;;;;;;28.74;33.12;102273.88;5071386;28;20033;-49
2023/06/04 10:57:55;;;;;;;5.80;1.42;;;;;;;28.37;34.13;102264.50;5070041;28;20063;-52
2023/06/04 11:00:22;;;;;;;2.20;1.30;;;;;;;28.53;33.93;102267.41;5053403;28;20479;-51
2023/06/04 11:02:56;;;;;;;7.83;1.63;;;;;;;28.38;34.11;102274.47;5070916;28;20028;-51
2023/06/04 11:05:22;;;;;;;8.10;1.58;;;;;;;28.89;32.72;102268.41;5070530;28;20090;-47
2023/06/04 11:07:49;;;;;;;4.80;1.20;;;;;;;29.13;32.51;102267.97;5075057;28;20063;-50
2023/06/04 11:10:16;;;;;;;2.05;1.40;;;;;;;28.91;32.15;102277.25;5085975;28;20024;-52
2023/06/04 11:12:50;;;;;;;2.83;1.40;;;;;;;28.79;32.44;102269.19;5079553;28;20032;-51
2023/06/04 11:15:16;;;;;;;6.60;1.67;;;;;;;28.73;32.01;102272.22;5086285;28;20470;-50
2023/06/04 11:17:51;;;;;;;8.43;1.50;;;;;;;28.65;32.73;102265.25;5081352;28;20124;-49